| time (UTC) | temp F | wind direction | speed MPH | gust MPH | rain 1hr in | rain 24hr in | rain mn in | humidity % | barometer mb |
| 20260506091004 | 61 | 118 | 0.0 | 0.0 | 0.00 | 0.01 | 0.00 | 79 | 1017.6 |
| 20260506090004 | 61 | 118 | 0.0 | 0.0 | 0.00 | 0.01 | 0.00 | 79 | 1017.5 |
| 20260506085004 | 61 | 118 | 0.0 | 0.0 | 0.00 | 0.02 | 0.00 | 78 | 1017.5 |
| 20260506084006 | 61 | 116 | 0.0 | 0.0 | 0.00 | 0.02 | 0.00 | 78 | 1017.4 |
| 20260506083005 | 61 | 118 | 0.0 | 0.0 | 0.00 | 0.02 | 0.00 | 78 | 1014.3 |
| 20260506082004 | 61 | 118 | 0.0 | 0.0 | 0.00 | 0.03 | 0.00 | 78 | 1014.3 |
| 20260506081006 | 62 | 119 | 0.0 | 0.0 | 0.00 | 0.03 | 0.00 | 78 | 1014.3 |
| 20260506073004 | 62 | 121 | 0.0 | 0.0 | 0.00 | 0.23 | 0.00 | 77 | 1014.3 |
| 20260506072004 | 62 | 118 | 0.0 | 0.0 | 0.00 | 0.23 | 0.00 | 77 | 1014.3 |
| 20260506061004 | 63 | 134 | 0.0 | 0.0 | 0.00 | 0.26 | 0.00 | 73 | 1014.3 |
| 20260506051004 | 63 | 120 | 0.0 | 0.0 | 0.00 | 0.34 | 0.00 | 73 | 1014.3 |
| 20260506045004 | 63 | 119 | 0.0 | 0.0 | 0.00 | 0.35 | 0.00 | 72 | 1014.3 |
| 20260506044004 | 63 | 122 | 0.0 | 0.0 | 0.00 | 0.36 | 0.00 | 73 | 1014.3 |
| 20260506043005 | 63 | 129 | 0.0 | 0.0 | 0.00 | 0.37 | 0.00 | 72 | 1014.3 |
| 20260506042004 | 63 | 129 | 0.0 | 0.0 | 0.00 | 0.39 | 0.00 | 72 | 1014.3 |
| 20260506041007 | 64 | 122 | 0.0 | 0.0 | 0.00 | 0.39 | 0.00 | 72 | 1014.3 |
| 20260506040004 | 64 | 132 | 0.0 | 0.0 | 0.00 | 0.40 | 0.02 | 71 | 1014.3 |
| 20260506035004 | 64 | 130 | 1.0 | 2.0 | 0.00 | 0.40 | 0.02 | 70 | 1014.3 |
| 20260506034004 | 64 | 143 | 1.0 | 2.0 | 0.00 | 0.40 | 0.02 | 70 | 1014.3 |
| 20260506033005 | 64 | 110 | 1.0 | 2.0 | 0.00 | 0.40 | 0.02 | 70 | 1014.3 |
| 20260506032004 | 64 | 131 | 1.0 | 1.0 | 0.00 | 0.40 | 0.02 | 70 | 1014.3 |
| 20260506031004 | 64 | 131 | 0.0 | 2.0 | 0.00 | 0.43 | 0.02 | 70 | 1013.9 |
| 20260506025004 | 64 | 138 | 0.0 | 1.0 | 0.00 | 0.43 | 0.02 | 70 | 1013.7 |
| 20260506024004 | 64 | 125 | 0.0 | 1.0 | 0.00 | 0.43 | 0.02 | 69 | 1013.4 |
| 20260506023004 | 65 | 124 | 1.0 | 2.0 | 0.00 | 0.43 | 0.02 | 69 | 1013.5 |
| 20260506022005 | 65 | 228 | 1.0 | 2.0 | 0.00 | 0.43 | 0.02 | 69 | 1013.3 |
| 20260506021005 | 65 | 126 | 0.0 | 1.0 | 0.00 | 0.43 | 0.02 | 69 | 1013.0 |
| 20260506020004 | 65 | 123 | 0.0 | 5.0 | 0.00 | 0.43 | 0.02 | 70 | 1013.1 |
| 20260506015003 | 65 | 111 | 3.0 | 5.0 | 0.00 | 0.43 | 0.02 | 68 | 1012.9 |
| 20260506014004 | 65 | 140 | 1.0 | 2.0 | 0.00 | 0.43 | 0.02 | 68 | 1013.0 |
| 20260506013004 | 66 | 111 | 1.0 | 1.0 | 0.00 | 0.43 | 0.02 | 66 | 1012.7 |
| 20260506012004 | 66 | 128 | 0.0 | 3.0 | 0.00 | 0.43 | 0.02 | 67 | 1012.6 |
| 20260506011005 | 66 | 127 | 3.0 | 3.0 | 0.00 | 0.43 | 0.02 | 66 | 1012.6 |
| 20260506010004 | 66 | 125 | 1.0 | 1.0 | 0.00 | 0.43 | 0.02 | 66 | 1012.6 |
| 20260506005004 | 66 | 127 | 1.0 | 1.0 | 0.00 | 0.43 | 0.02 | 67 | 1012.4 |
| 20260506004005 | 66 | 101 | 1.0 | 1.0 | 0.00 | 0.43 | 0.02 | 66 | 1012.4 |
| 20260506002003 | 66 | 132 | 0.0 | 1.0 | 0.00 | 0.43 | 0.02 | 67 | 1012.6 |
| 20260506001004 | 66 | 135 | 0.0 | 2.0 | 0.00 | 0.43 | 0.02 | 67 | 1012.3 |
| 20260506000004 | 67 | 171 | 1.0 | 2.0 | 0.00 | 0.43 | 0.02 | 64 | 1012.3 |
| 20260505235003 | 67 | 142 | 0.0 | 2.0 | 0.00 | 0.43 | 0.02 | 66 | 1012.3 |
| 20260505234004 | 66 | 123 | 1.0 | 3.0 | 0.00 | 0.43 | 0.02 | 66 | 1012.3 |
| 20260505233004 | 67 | 176 | 1.0 | 3.0 | 0.00 | 0.43 | 0.02 | 66 | 1012.3 |
| 20260505232005 | 67 | 167 | 1.0 | 2.0 | 0.00 | 0.43 | 0.02 | 66 | 1012.5 |
| 20260505231003 | 67 | 155 | 1.0 | 2.0 | 0.00 | 0.43 | 0.02 | 65 | 1012.5 |
| 20260505230004 | 67 | 164 | 2.0 | 3.0 | 0.00 | 0.43 | 0.02 | 65 | 1012.5 |
| 20260505225004 | 67 | 124 | 2.0 | 3.0 | 0.00 | 0.43 | 0.02 | 66 | 1012.5 |
| 20260505224004 | 67 | 144 | 1.0 | 3.0 | 0.00 | 0.43 | 0.02 | 66 | 1012.6 |
| 20260505223004 | 68 | 132 | 3.0 | 3.0 | 0.00 | 0.43 | 0.02 | 64 | 1012.8 |
| 20260505222004 | 69 | 114 | 0.0 | 1.0 | 0.00 | 0.43 | 0.02 | 64 | 1012.8 |
| 20260505221004 | 69 | 141 | 0.0 | 1.0 | 0.00 | 0.43 | 0.02 | 60 | 1012.8 |
| 20260505220004 | 70 | 120 | 0.0 | 3.0 | 0.00 | 0.43 | 0.02 | 60 | 1013.0 |
| 20260505214004 | 68 | 147 | 1.0 | 1.0 | 0.00 | 0.43 | 0.02 | 64 | 1013.0 |
| 20260505213004 | 68 | 114 | 2.0 | 3.0 | 0.00 | 0.43 | 0.02 | 62 | 1013.1 |
| 20260505212004 | 70 | 130 | 1.0 | 3.0 | 0.00 | 0.43 | 0.02 | 59 | 1013.1 |
| 20260505211004 | 70 | 126 | 0.0 | 2.0 | 0.00 | 0.43 | 0.02 | 60 | 1013.2 |
| 20260505210004 | 70 | 126 | 1.0 | 1.0 | 0.00 | 0.43 | 0.02 | 60 | 1013.3 |
| 20260505205003 | 69 | 134 | 2.0 | 2.0 | 0.00 | 0.43 | 0.02 | 61 | 1013.2 |
| 20260505203004 | 67 | 137 | 2.0 | 2.0 | 0.00 | 0.43 | 0.02 | 62 | 1013.5 |
| 20260505202004 | 67 | 178 | 1.0 | 2.0 | 0.00 | 0.43 | 0.02 | 64 | 1013.6 |
| 20260505201004 | 67 | 106 | 0.0 | 1.0 | 0.00 | 0.43 | 0.02 | 66 | 1013.6 |
| 20260505200004 | 65 | 116 | 0.0 | 1.0 | 0.00 | 0.43 | 0.02 | 68 | 1013.7 |
| 20260505195003 | 64 | 101 | 0.0 | 1.0 | 0.00 | 0.43 | 0.02 | 66 | 1013.8 |
| 20260505194004 | 64 | 92 | 1.0 | 3.0 | 0.00 | 0.43 | 0.02 | 72 | 1013.9 |
| 20260505193003 | 64 | 199 | 2.0 | 3.0 | 0.00 | 0.43 | 0.02 | 70 | 1013.9 |
| 20260505192004 | 64 | 125 | 1.0 | 2.0 | 0.00 | 0.43 | 0.02 | 71 | 1014.2 |
| 20260505191004 | 63 | 186 | 2.0 | 2.0 | 0.00 | 0.43 | 0.02 | 71 | 1014.0 |
| 20260505190004 | 64 | 110 | 1.0 | 1.0 | 0.00 | 0.43 | 0.02 | 70 | 1014.2 |
| 20260505184005 | 61 | 108 | 0.0 | 1.0 | 0.00 | 0.43 | 0.02 | 75 | 1013.9 |
| 20260505175005 | 59 | 141 | 0.0 | 2.0 | 0.00 | 0.43 | 0.02 | 79 | 1014.2 |
| 20260505174006 | 60 | 171 | 2.0 | 2.0 | 0.00 | 0.43 | 0.02 | 78 | 1014.2 |
| 20260505171004 | 58 | 147 | 0.0 | 1.0 | 0.00 | 0.43 | 0.02 | 83 | 1014.3 |
| 20260505170004 | 58 | 140 | 1.0 | 1.0 | 0.00 | 0.43 | 0.02 | 83 | 1014.1 |
| 20260505165003 | 58 | 134 | 0.0 | 0.0 | 0.00 | 0.43 | 0.02 | 84 | 1014.3 |
| 20260505164004 | 56 | 133 | 0.0 | 0.0 | 0.00 | 0.43 | 0.02 | 86 | 1014.3 |
| 20260505162005 | 56 | 121 | 1.0 | 1.0 | 0.00 | 0.43 | 0.02 | 87 | 1014.3 |
| 20260505161005 | 56 | 123 | 0.0 | 0.0 | 0.00 | 0.43 | 0.02 | 88 | 1014.3 |
| 20260505153004 | 55 | 102 | 1.0 | 1.0 | 0.00 | 0.43 | 0.02 | 91 | 1014.1 |
| 20260505152004 | 54 | 120 | 0.0 | 2.0 | 0.00 | 0.43 | 0.02 | 91 | 1014.1 |
| 20260505151004 | 54 | 116 | 2.0 | 2.0 | 0.00 | 0.43 | 0.02 | 92 | 1014.0 |
| 20260505124004 | 53 | 139 | 0.0 | 0.0 | 0.00 | 0.43 | 0.02 | 95 | 1013.2 |
| 20260505123005 | 53 | 128 | 0.0 | 0.0 | 0.00 | 0.43 | 0.02 | 95 | 1013.2 |
| 20260505121004 | 53 | 116 | 0.0 | 0.0 | 0.00 | 0.43 | 0.02 | 95 | 1013.3 |
| 20260505120004 | 53 | 128 | 0.0 | 0.0 | 0.00 | 0.43 | 0.02 | 95 | 1013.3 |
| 20260505115004 | 53 | 119 | 0.0 | 0.0 | 0.00 | 0.43 | 0.02 | 95 | 1013.2 |
| 20260505114004 | 53 | 127 | 0.0 | 0.0 | 0.00 | 0.43 | 0.02 | 95 | 1013.3 |
| 20260505113004 | 53 | 118 | 0.0 | 0.0 | 0.00 | 0.43 | 0.02 | 95 | 1013.1 |
| 20260505112004 | 53 | 128 | 0.0 | 0.0 | 0.00 | 0.43 | 0.02 | 95 | 1013.2 |
| 20260505111004 | 53 | 128 | 0.0 | 0.0 | 0.01 | 0.43 | 0.02 | 95 | 1013.1 |
| 20260505102004 | 53 | 130 | 0.0 | 0.0 | 0.01 | 0.43 | 0.02 | 95 | 1013.1 |
| 20260505101004 | 54 | 123 | 0.0 | 0.0 | 0.00 | 0.42 | 0.01 | 95 | 1013.2 |
| 20260505100003 | 53 | 134 | 0.0 | 0.0 | 0.00 | 0.42 | 0.01 | 95 | 1013.2 |
| 20260505095004 | 53 | 131 | 0.0 | 0.0 | 0.01 | 0.42 | 0.01 | 95 | 1013.3 |
| 20260505094004 | 53 | 119 | 0.0 | 3.0 | 0.01 | 0.42 | 0.01 | 94 | 1013.2 |
| 20260505092005 | 53 | 130 | 0.0 | 0.0 | 0.00 | 0.42 | 0.01 | 94 | 1013.2 |